Aviation Digital Data Service (ADDS)

Output produced by METARs form (0308 UTC 18 August 2017)
found at http://www.aviationweather.gov/adds/metars/
 
EGYP 180250Z 28012KT 9999 FEW022 M01/M02 Q0996 BLU
TAF EGYP 180140Z 1803/1821 26015KT 9999 SCT025 
     PROB30 
     TEMPO 1803/1806 6000 -SHGS -SHSN SCT008 
     BECMG 1806/1809 31010KT 
     BECMG 1818/1821 08015KT